createdAt,value
2023-04-08T00:01:50.752Z,8.11
2023-04-08T00:04:20.538Z,8.15
2023-04-08T00:06:50.013Z,8.06
2023-04-08T00:09:19.057Z,8.03
2023-04-08T00:11:50.155Z,8.06
2023-04-08T00:14:19.476Z,8.04
2023-04-08T00:16:48.834Z,8.03
2023-04-08T00:19:18.271Z,8.03
2023-04-08T00:21:47.693Z,8.03
2023-04-08T00:24:17.356Z,8.02
2023-04-08T00:26:48.115Z,8.03
2023-04-08T00:29:17.353Z,8.02
2023-04-08T00:31:46.846Z,8.02
2023-04-08T00:34:16.018Z,8.02
2023-04-08T00:36:46.157Z,8.03
2023-04-08T00:39:15.909Z,8.01
2023-04-08T00:41:45.823Z,8.04
2023-04-08T00:44:16.599Z,8.02
2023-04-08T00:46:46.440Z,8.01
2023-04-08T00:49:16.188Z,8.04
2023-04-08T00:51:45.487Z,8.03
2023-04-08T00:54:14.687Z,8.00
2023-04-08T00:56:46.232Z,7.98
2023-04-08T00:59:18.953Z,7.97
2023-04-08T01:01:58.764Z,7.97
2023-04-08T01:04:31.894Z,7.99
2023-04-08T01:07:07.250Z,7.95
2023-04-08T01:09:40.199Z,7.92
2023-04-08T01:12:13.212Z,7.91
2023-04-08T01:14:48.255Z,7.93
2023-04-08T01:17:21.179Z,7.91
2023-04-08T01:19:51.968Z,7.89
2023-04-08T01:22:29.839Z,7.87
2023-04-08T01:25:03.995Z,7.85
2023-04-08T01:27:36.573Z,7.83
2023-04-08T01:30:09.078Z,7.79
2023-04-08T01:32:39.545Z,7.78
2023-04-08T01:35:10.806Z,7.75
2023-04-08T01:37:41.577Z,7.73
2023-04-08T01:40:13.595Z,7.70
2023-04-08T01:42:45.999Z,7.68
2023-04-08T01:45:15.881Z,7.67
2023-04-08T01:47:48.442Z,7.66
2023-04-08T01:50:18.430Z,7.65
2023-04-08T01:52:53.863Z,7.63
2023-04-08T01:55:24.132Z,7.62
2023-04-08T01:57:57.154Z,7.61
2023-04-08T02:00:30.641Z,7.60
2023-04-08T02:03:01.917Z,7.59
2023-04-08T02:05:31.328Z,7.58
2023-04-08T02:08:00.825Z,7.58
2023-04-08T02:10:30.245Z,7.56
2023-04-08T02:13:02.306Z,7.55
2023-04-08T02:15:36.357Z,7.55
2023-04-08T02:18:12.576Z,7.53
2023-04-08T02:20:49.083Z,7.53
2023-04-08T02:23:22.809Z,7.52
2023-04-08T02:25:53.633Z,7.52
2023-04-08T02:28:27.683Z,7.51
2023-04-08T02:31:23.240Z,7.49
2023-04-08T02:33:53.991Z,7.49
2023-04-08T02:36:24.517Z,7.48
2023-04-08T02:38:53.938Z,7.47
2023-04-08T02:41:23.659Z,7.47
2023-04-08T02:43:55.630Z,7.46
2023-04-08T02:46:25.079Z,7.45
2023-04-08T02:48:54.473Z,7.46
2023-04-08T02:51:23.849Z,7.43
2023-04-08T02:53:53.245Z,7.40
2023-04-08T02:56:22.866Z,7.39
2023-04-08T02:58:53.612Z,7.39
2023-04-08T03:01:22.806Z,7.39
2023-04-08T03:03:52.433Z,7.39
2023-04-08T03:06:21.683Z,7.38
2023-04-08T03:08:51.254Z,7.38
2023-04-08T03:11:21.572Z,7.36
2023-04-08T03:13:50.988Z,7.36
2023-04-08T03:16:21.565Z,7.37
2023-04-08T03:18:52.508Z,7.35
2023-04-08T03:21:21.991Z,7.34
2023-04-08T03:23:51.291Z,7.35
2023-04-08T03:26:21.171Z,7.35
2023-04-08T03:28:50.826Z,7.34
2023-04-08T03:31:22.354Z,7.33
2023-04-08T03:33:51.856Z,7.30
2023-04-08T03:36:20.931Z,7.28
2023-04-08T03:38:50.594Z,7.28
2023-04-08T03:41:19.871Z,7.27
2023-04-08T03:43:49.348Z,7.28
2023-04-08T03:46:18.540Z,7.27
2023-04-08T03:48:49.548Z,7.26
2023-04-08T03:51:18.924Z,7.26
2023-04-08T03:53:49.389Z,7.25
2023-04-08T03:56:18.549Z,7.23
2023-04-08T03:58:48.006Z,7.23
2023-04-08T04:01:18.061Z,7.20
2023-04-08T04:03:49.056Z,7.18
2023-04-08T04:06:18.343Z,7.16
2023-04-08T04:08:48.078Z,7.14
2023-04-08T04:11:17.847Z,7.09
2023-04-08T04:13:46.966Z,7.09
2023-04-08T04:16:16.108Z,7.03
2023-04-08T04:18:45.591Z,6.98
2023-04-08T04:21:16.123Z,6.94
2023-04-08T04:23:45.681Z,6.92
2023-04-08T04:26:15.286Z,6.86
2023-04-08T04:28:44.766Z,6.83
2023-04-08T04:31:21.450Z,6.78
2023-04-08T04:33:51.686Z,6.75
2023-04-08T04:36:22.122Z,6.73
2023-04-08T04:38:52.453Z,6.70
2023-04-08T04:41:22.192Z,6.66
2023-04-08T04:43:51.767Z,6.64
2023-04-08T04:46:20.995Z,6.60
2023-04-08T04:48:51.714Z,6.53
2023-04-08T04:51:22.325Z,6.51
2023-04-08T04:53:52.076Z,6.50
2023-04-08T04:56:21.309Z,6.50
2023-04-08T04:58:50.715Z,6.51
2023-04-08T05:01:19.962Z,6.49
2023-04-08T05:03:49.535Z,6.45
2023-04-08T05:06:18.721Z,6.45
2023-04-08T05:08:49.693Z,6.45
2023-04-08T05:11:19.427Z,6.43
2023-04-08T05:13:48.942Z,6.44
2023-04-08T05:16:18.412Z,6.46
2023-04-08T05:18:48.054Z,6.47
2023-04-08T05:21:17.196Z,6.46
2023-04-08T05:23:48.157Z,6.46
2023-04-08T05:26:19.290Z,6.48
2023-04-08T05:28:49.963Z,6.49
2023-04-08T05:31:19.579Z,6.47
2023-04-08T05:33:49.182Z,6.48
2023-04-08T05:36:18.337Z,6.46
2023-04-08T05:38:49.295Z,6.47
2023-04-08T05:41:18.677Z,6.50
2023-04-08T05:43:48.027Z,6.50
2023-04-08T05:46:17.433Z,6.50
2023-04-08T05:48:46.894Z,6.52
2023-04-08T05:51:17.884Z,6.52
2023-04-08T05:53:49.103Z,6.55
2023-04-08T05:56:18.419Z,6.60
2023-04-08T05:58:48.240Z,6.63
2023-04-08T06:01:17.613Z,6.64
2023-04-08T06:03:47.184Z,6.68
2023-04-08T06:06:16.711Z,6.75
2023-04-08T06:08:46.044Z,6.77
2023-04-08T06:11:16.678Z,6.81
2023-04-08T06:13:45.733Z,6.86
2023-04-08T06:16:19.615Z,6.91
2023-04-08T06:18:50.407Z,6.95
2023-04-08T06:21:20.014Z,7.01
2023-04-08T06:23:49.218Z,7.06
2023-04-08T06:26:20.074Z,7.11
2023-04-08T06:28:49.753Z,7.15
2023-04-08T06:31:19.305Z,7.22
2023-04-08T06:33:48.422Z,7.27
2023-04-08T06:36:17.899Z,7.34
2023-04-08T06:38:47.030Z,7.39
2023-04-08T06:41:16.517Z,7.46
2023-04-08T06:43:47.375Z,7.54
2023-04-08T06:46:16.860Z,7.62
2023-04-08T06:48:45.955Z,7.70
2023-04-08T06:51:15.889Z,7.78
2023-04-08T06:53:45.101Z,7.89
2023-04-08T06:56:14.435Z,7.98
2023-04-08T06:58:46.500Z,8.07
2023-04-08T07:01:16.749Z,8.16
2023-04-08T07:03:46.071Z,8.28
2023-04-08T07:06:15.610Z,8.36
2023-04-08T07:08:45.596Z,8.46
2023-04-08T07:11:15.150Z,8.55
2023-04-08T07:13:44.864Z,8.64
2023-04-08T07:16:16.092Z,8.75
2023-04-08T07:18:45.820Z,8.82
2023-04-08T07:21:15.382Z,8.92
2023-04-08T07:23:44.718Z,9.00
2023-04-08T07:26:14.316Z,9.10
2023-04-08T07:28:43.697Z,9.15
2023-04-08T07:31:16.400Z,9.25
2023-04-08T07:33:46.530Z,9.32
2023-04-08T07:36:18.514Z,9.39
2023-04-08T07:38:47.858Z,9.51
2023-04-08T07:41:17.149Z,9.59
2023-04-08T07:43:46.395Z,9.66
2023-04-08T07:46:17.263Z,9.74
2023-04-08T07:48:46.764Z,9.83
2023-04-08T07:51:16.007Z,9.88
2023-04-08T07:53:45.361Z,9.94
2023-04-08T07:56:15.361Z,9.99
2023-04-08T07:58:44.734Z,10.08
2023-04-08T08:01:21.266Z,10.17
2023-04-08T08:03:51.637Z,10.24
2023-04-08T08:06:22.172Z,10.31
2023-04-08T08:08:51.380Z,10.40
2023-04-08T08:11:21.380Z,10.49
2023-04-08T08:13:51.043Z,10.55
2023-04-08T08:16:22.011Z,10.65
2023-04-08T08:18:51.245Z,10.77
2023-04-08T08:21:20.627Z,10.86
2023-04-08T08:23:50.016Z,10.93
2023-04-08T08:26:19.696Z,11.02
2023-04-08T08:28:48.955Z,11.12
2023-04-08T08:31:18.321Z,11.23
2023-04-08T08:33:49.095Z,11.33
2023-04-08T08:36:19.168Z,11.47
2023-04-08T08:38:48.030Z,11.53
2023-04-08T08:41:17.508Z,11.62
2023-04-08T08:43:48.976Z,11.77
2023-04-08T08:46:20.160Z,11.88
2023-04-08T08:48:50.965Z,11.98
2023-04-08T08:51:20.552Z,12.07
2023-04-08T08:53:49.626Z,12.16
2023-04-08T08:56:19.333Z,12.26
2023-04-08T08:58:49.215Z,12.35
2023-04-08T09:01:38.708Z,12.49
2023-04-08T09:04:18.725Z,12.64
2023-04-08T09:06:50.196Z,12.75
2023-04-08T09:09:19.669Z,12.86
2023-04-08T09:11:49.749Z,13.00
2023-04-08T09:14:23.434Z,13.16
2023-04-08T09:16:53.604Z,13.29
2023-04-08T09:19:24.380Z,13.39
2023-04-08T09:22:10.856Z,13.47
2023-04-08T09:24:40.810Z,13.57
2023-04-08T09:27:10.598Z,13.69
2023-04-08T09:29:40.187Z,13.76
2023-04-08T09:32:09.706Z,13.83
2023-04-08T09:34:40.376Z,13.89
2023-04-08T09:37:10.271Z,13.96
2023-04-08T09:39:39.422Z,14.00
2023-04-08T09:42:11.048Z,14.00
2023-04-08T09:44:41.611Z,14.04
2023-04-08T09:47:19.784Z,14.07
2023-04-08T09:50:05.610Z,14.12
2023-04-08T09:52:41.135Z,14.13
2023-04-08T09:55:14.027Z,14.08
2023-04-08T09:57:45.926Z,14.10
2023-04-08T10:00:17.021Z,14.15
2023-04-08T10:02:54.248Z,14.16
2023-04-08T10:05:26.767Z,14.15
2023-04-08T10:07:58.179Z,14.13
2023-04-08T10:10:29.584Z,14.15
2023-04-08T10:12:59.400Z,14.15
2023-04-08T10:15:28.985Z,14.17
2023-04-08T10:18:14.765Z,14.15
2023-04-08T10:20:47.050Z,14.17
2023-04-08T10:23:17.577Z,14.18
2023-04-08T10:25:48.281Z,14.20
2023-04-08T10:28:27.398Z,14.24
2023-04-08T10:30:58.257Z,14.21
2023-04-08T10:33:37.870Z,14.26
2023-04-08T10:36:15.470Z,14.31
2023-04-08T10:38:47.274Z,14.37
2023-04-08T10:41:25.047Z,14.34
2023-04-08T10:43:54.953Z,14.40
2023-04-08T10:46:25.535Z,14.46
2023-04-08T10:49:02.715Z,14.41
2023-04-08T10:51:35.241Z,14.38
2023-04-08T10:54:08.554Z,14.37
2023-04-08T10:56:38.764Z,14.40
2023-04-08T10:59:08.274Z,14.44
2023-04-08T11:01:42.183Z,14.50
2023-04-08T11:04:16.519Z,14.50
2023-04-08T11:06:48.750Z,14.51
2023-04-08T11:09:18.502Z,14.55
2023-04-08T11:11:48.171Z,14.67
2023-04-08T11:14:21.901Z,14.72
2023-04-08T11:16:51.412Z,14.78
2023-04-08T11:19:21.539Z,14.83
2023-04-08T11:21:54.513Z,14.85
2023-04-08T11:24:24.232Z,14.96
2023-04-08T11:26:53.451Z,14.97
2023-04-08T11:29:22.702Z,15.04
2023-04-08T11:31:52.316Z,15.09
2023-04-08T11:34:25.699Z,15.14
2023-04-08T11:36:58.492Z,15.24
2023-04-08T11:39:28.127Z,15.30
2023-04-08T11:41:57.513Z,15.41
2023-04-08T11:44:33.716Z,15.54
2023-04-08T11:47:03.193Z,15.68
2023-04-08T11:49:46.554Z,15.81
2023-04-08T11:52:17.142Z,15.90
2023-04-08T11:54:47.204Z,15.98
2023-04-08T11:57:17.689Z,16.07
2023-04-08T11:59:47.241Z,16.14
2023-04-08T12:02:17.238Z,16.19
2023-04-08T12:04:47.584Z,16.22
2023-04-08T12:07:18.526Z,16.28
2023-04-08T12:09:48.070Z,16.34
2023-04-08T12:12:17.160Z,16.37
2023-04-08T12:14:46.649Z,16.38
2023-04-08T12:17:15.963Z,16.36
2023-04-08T12:19:45.427Z,16.39
2023-04-08T12:22:14.474Z,16.46
2023-04-08T12:24:45.248Z,16.47
2023-04-08T12:27:14.553Z,16.43
2023-04-08T12:29:46.466Z,16.43
2023-04-08T12:32:15.683Z,16.41
2023-04-08T12:34:45.069Z,16.38
2023-04-08T12:37:14.057Z,16.37
2023-04-08T12:39:44.731Z,16.36
2023-04-08T12:42:14.038Z,16.39
2023-04-08T12:44:43.825Z,16.43
2023-04-08T12:47:13.230Z,16.49
2023-04-08T12:49:49.314Z,16.53
2023-04-08T12:52:19.780Z,16.60
2023-04-08T12:54:50.517Z,16.64
2023-04-08T12:57:19.932Z,16.70
2023-04-08T12:59:49.351Z,16.75
2023-04-08T13:02:18.342Z,16.75
2023-04-08T13:04:49.836Z,16.82
2023-04-08T13:07:19.191Z,16.84
2023-04-08T13:09:49.990Z,16.88
2023-04-08T13:12:19.151Z,16.88
2023-04-08T13:14:48.639Z,16.93
2023-04-08T13:17:17.891Z,17.02
2023-04-08T13:19:47.598Z,17.07
2023-04-08T13:22:16.783Z,17.14
2023-04-08T13:24:46.730Z,17.20
2023-04-08T13:27:17.589Z,17.30
2023-04-08T13:29:47.175Z,17.36
2023-04-08T13:32:16.537Z,17.43
2023-04-08T13:34:45.919Z,17.52
2023-04-08T13:37:15.071Z,17.61
2023-04-08T13:39:44.426Z,17.73
2023-04-08T13:42:13.427Z,17.90
2023-04-08T13:44:43.909Z,18.14
2023-04-08T13:47:13.130Z,18.47
2023-04-08T13:49:42.464Z,18.75
2023-04-08T13:52:11.502Z,19.08
2023-04-08T13:54:40.685Z,19.49
2023-04-08T13:57:11.348Z,19.92
2023-04-08T13:59:42.657Z,20.32
2023-04-08T14:02:14.780Z,20.73
2023-04-08T14:04:45.873Z,21.15
2023-04-08T14:07:15.456Z,21.56
2023-04-08T14:09:44.958Z,21.98
2023-04-08T14:12:14.154Z,22.18
2023-04-08T14:14:43.670Z,22.50
2023-04-08T14:17:14.797Z,22.69
2023-04-08T14:19:44.713Z,22.87
2023-04-08T14:22:14.672Z,23.05
2023-04-08T14:24:44.345Z,23.19
2023-04-08T14:27:13.509Z,23.20
2023-04-08T14:29:43.300Z,23.34
2023-04-08T14:32:14.046Z,23.22
2023-04-08T14:34:43.562Z,23.28
2023-04-08T14:37:12.956Z,23.29
2023-04-08T14:39:42.419Z,23.34
2023-04-08T14:42:11.535Z,23.40
2023-04-08T14:44:41.425Z,23.42
2023-04-08T14:47:10.675Z,23.39
2023-04-08T14:49:41.442Z,23.35
2023-04-08T14:52:10.609Z,23.31
2023-04-08T14:54:39.923Z,23.29
2023-04-08T14:57:09.402Z,23.31
2023-04-08T14:59:38.854Z,23.39
2023-04-08T15:02:08.379Z,23.39
2023-04-08T15:04:37.986Z,23.45
2023-04-08T15:07:08.734Z,23.57
2023-04-08T15:09:38.629Z,23.70
2023-04-08T15:12:08.298Z,23.80
2023-04-08T15:14:38.710Z,23.86
2023-04-08T15:17:10.260Z,23.91
2023-04-08T15:19:39.701Z,24.03
2023-04-08T15:22:10.192Z,24.03
2023-04-08T15:24:39.766Z,24.16
2023-04-08T15:27:09.047Z,24.11
2023-04-08T15:29:38.619Z,24.15
2023-04-08T15:32:07.724Z,24.16
2023-04-08T15:34:37.331Z,24.17
2023-04-08T15:37:06.506Z,24.09
2023-04-08T15:39:37.608Z,24.23
2023-04-08T15:42:06.913Z,24.23
2023-04-08T15:44:36.636Z,24.16
2023-04-08T15:47:08.145Z,24.11
2023-04-08T15:49:37.637Z,24.03
2023-04-08T15:52:07.375Z,24.05
2023-04-08T15:54:38.816Z,24.09
2023-04-08T15:57:08.256Z,23.94
2023-04-08T15:59:37.687Z,23.90
2023-04-08T16:02:07.456Z,23.78
2023-04-08T16:04:36.964Z,23.79
2023-04-08T16:07:06.236Z,23.72
2023-04-08T16:09:37.103Z,23.65
2023-04-08T16:12:06.482Z,23.52
2023-04-08T16:14:35.804Z,23.38
2023-04-08T16:17:05.002Z,23.22
2023-04-08T16:19:34.347Z,23.06
2023-04-08T16:22:03.618Z,22.89
2023-04-08T16:24:37.589Z,22.70
2023-04-08T16:27:08.252Z,22.46
2023-04-08T16:29:38.046Z,22.24
2023-04-08T16:32:07.393Z,22.07
2023-04-08T16:34:36.889Z,21.85
2023-04-08T16:37:06.109Z,21.61
2023-04-08T16:39:35.536Z,21.34
2023-04-08T16:42:06.474Z,21.10
2023-04-08T16:44:35.956Z,20.80
2023-04-08T16:47:05.111Z,20.53
2023-04-08T16:49:34.455Z,20.25
2023-04-08T16:52:03.898Z,19.93
2023-04-08T16:54:33.381Z,19.62
2023-04-08T16:57:02.445Z,19.39
2023-04-08T16:59:33.236Z,19.13
2023-04-08T17:02:02.959Z,18.86
2023-04-08T17:04:32.850Z,18.61
2023-04-08T17:07:02.473Z,18.36
2023-04-08T17:09:32.243Z,18.11
2023-04-08T17:12:01.482Z,17.88
2023-04-08T17:14:32.507Z,17.66
2023-04-08T17:17:02.510Z,17.41
2023-04-08T17:19:32.607Z,17.16
2023-04-08T17:22:01.891Z,16.94
2023-04-08T17:24:31.433Z,16.72
2023-04-08T17:27:00.296Z,16.55
2023-04-08T17:29:29.666Z,16.33
2023-04-08T17:32:00.290Z,16.11
2023-04-08T17:34:31.319Z,15.92
2023-04-08T17:37:00.728Z,15.73
2023-04-08T17:39:31.416Z,15.52
2023-04-08T17:42:02.168Z,15.31
2023-04-08T17:44:31.816Z,15.13
2023-04-08T17:47:02.081Z,14.99
2023-04-08T17:49:31.552Z,14.75
2023-04-08T17:52:00.879Z,14.65
2023-04-08T17:54:31.489Z,14.48
2023-04-08T17:57:01.429Z,14.25
2023-04-08T17:59:30.886Z,14.05
2023-04-08T18:02:00.071Z,13.88
2023-04-08T18:04:30.920Z,13.78
2023-04-08T18:07:03.829Z,13.67
2023-04-08T18:09:33.319Z,13.55
2023-04-08T18:12:02.465Z,13.42
2023-04-08T18:14:32.150Z,13.26
2023-04-08T18:17:01.501Z,13.11
2023-04-08T18:19:32.114Z,13.04
2023-04-08T18:22:01.329Z,12.86
2023-04-08T18:24:30.800Z,12.71
2023-04-08T18:27:04.307Z,12.60
2023-04-08T18:29:34.772Z,12.45
2023-04-08T18:32:03.985Z,12.31
2023-04-08T18:34:36.461Z,12.18
2023-04-08T18:37:06.259Z,12.04
2023-04-08T18:39:36.120Z,11.92
2023-04-08T18:42:06.486Z,11.78
2023-04-08T18:44:36.198Z,11.65
2023-04-08T18:47:05.416Z,11.56
2023-04-08T18:49:38.609Z,11.44
2023-04-08T18:52:08.510Z,11.34
2023-04-08T18:54:38.359Z,11.25
2023-04-08T18:57:08.683Z,11.21
2023-04-08T18:59:38.219Z,11.10
2023-04-08T19:02:07.885Z,10.91
2023-04-08T19:04:39.293Z,10.79
2023-04-08T19:07:08.624Z,10.68
2023-04-08T19:09:38.021Z,10.59
2023-04-08T19:12:07.231Z,10.53
2023-04-08T19:14:36.692Z,10.47
2023-04-08T19:17:09.141Z,10.34
2023-04-08T19:19:42.080Z,10.23
2023-04-08T19:22:11.487Z,10.24
2023-04-08T19:24:41.115Z,10.11
2023-04-08T19:27:10.819Z,10.00
2023-04-08T19:29:40.466Z,9.81
2023-04-08T19:32:09.809Z,9.78
2023-04-08T19:34:40.620Z,9.77
2023-04-08T19:37:10.627Z,9.73
2023-04-08T19:39:40.660Z,9.65
2023-04-08T19:42:12.114Z,9.60
2023-04-08T19:44:41.595Z,9.55
2023-04-08T19:47:10.969Z,9.52
2023-04-08T19:49:42.383Z,9.48
2023-04-08T19:52:12.002Z,9.50
2023-04-08T19:54:43.481Z,9.44
2023-04-08T19:57:12.814Z,9.47
2023-04-08T19:59:42.612Z,9.49
2023-04-08T20:02:11.761Z,9.53
2023-04-08T20:04:42.903Z,9.44
2023-04-08T20:07:12.134Z,9.40
2023-04-08T20:09:41.544Z,9.41
2023-04-08T20:12:10.865Z,9.40
2023-04-08T20:14:44.132Z,9.41
2023-04-08T20:17:15.570Z,9.43
2023-04-08T20:19:46.641Z,9.43
2023-04-08T20:22:15.974Z,9.47
2023-04-08T20:24:45.753Z,9.49
2023-04-08T20:27:15.066Z,9.53
2023-04-08T20:29:44.559Z,9.53
2023-04-08T20:32:14.374Z,9.54
2023-04-08T20:34:46.642Z,9.53
2023-04-08T20:37:16.662Z,9.55
2023-04-08T20:39:46.693Z,9.56
2023-04-08T20:42:15.890Z,9.58
2023-04-08T20:44:45.442Z,9.59
2023-04-08T20:47:14.636Z,9.59
2023-04-08T20:49:46.331Z,9.62
2023-04-08T20:52:15.864Z,9.63
2023-04-08T20:54:45.346Z,9.63
2023-04-08T20:57:14.435Z,9.63
2023-04-08T20:59:43.816Z,9.59
2023-04-08T21:02:12.976Z,9.59
2023-04-08T21:04:46.156Z,9.59
2023-04-08T21:07:15.409Z,9.59
2023-04-08T21:09:47.853Z,9.60
2023-04-08T21:12:16.943Z,9.60
2023-04-08T21:14:47.954Z,9.60
2023-04-08T21:17:17.241Z,9.63
2023-04-08T21:19:48.070Z,9.61
2023-04-08T21:22:17.687Z,9.58
2023-04-08T21:24:47.095Z,9.58
2023-04-08T21:27:16.524Z,9.58
2023-04-08T21:29:45.970Z,9.59
2023-04-08T21:32:15.216Z,9.59
2023-04-08T21:34:46.351Z,9.60
2023-04-08T21:37:15.545Z,9.61
2023-04-08T21:39:44.877Z,9.59
2023-04-08T21:42:14.167Z,9.61
2023-04-08T21:44:43.482Z,9.47
2023-04-08T21:47:12.695Z,9.55
2023-04-08T21:49:42.063Z,9.59
2023-04-08T21:52:13.064Z,9.59
2023-04-08T21:54:42.582Z,9.60
2023-04-08T21:57:11.977Z,9.59
2023-04-08T21:59:41.542Z,9.58
2023-04-08T22:02:11.745Z,9.60
2023-04-08T22:04:41.533Z,9.59
2023-04-08T22:07:12.117Z,9.57
2023-04-08T22:09:41.873Z,9.59
2023-04-08T22:12:11.901Z,9.60
2023-04-08T22:14:41.308Z,9.60
2023-04-08T22:17:10.819Z,9.60
2023-04-08T22:19:40.282Z,9.59
2023-04-08T22:22:09.390Z,9.60
2023-04-08T22:24:40.301Z,9.60
2023-04-08T22:27:09.595Z,9.59
2023-04-08T22:29:39.003Z,9.55
2023-04-08T22:32:08.490Z,9.56
2023-04-08T22:34:38.163Z,9.52
2023-04-08T22:37:07.433Z,9.50
2023-04-08T22:39:36.766Z,9.51
2023-04-08T22:42:07.366Z,9.52
2023-04-08T22:44:36.886Z,9.52
2023-04-08T22:47:06.140Z,9.52
2023-04-08T22:49:35.574Z,9.49
2023-04-08T22:52:05.088Z,9.44
2023-04-08T22:54:34.483Z,9.37
2023-04-08T22:57:03.790Z,9.37
2023-04-08T22:59:34.552Z,9.34
2023-04-08T23:02:03.815Z,9.37
2023-04-08T23:04:33.372Z,9.39
2023-04-08T23:07:02.462Z,9.37
2023-04-08T23:09:31.728Z,9.37
2023-04-08T23:12:01.446Z,9.33
2023-04-08T23:14:30.932Z,9.29
2023-04-08T23:17:02.537Z,9.29
2023-04-08T23:19:34.182Z,9.26
2023-04-08T23:22:03.366Z,9.29
2023-04-08T23:24:34.458Z,9.31
2023-04-08T23:27:03.817Z,9.31
2023-04-08T23:29:33.016Z,9.32
2023-04-08T23:32:03.660Z,9.29
2023-04-08T23:34:35.976Z,9.25
2023-04-08T23:37:05.271Z,9.27
2023-04-08T23:39:34.480Z,9.25
2023-04-08T23:42:03.659Z,9.25
2023-04-08T23:44:32.928Z,9.24
2023-04-08T23:47:03.414Z,9.20
2023-04-08T23:49:33.003Z,9.21
2023-04-08T23:52:02.103Z,9.23
2023-04-08T23:54:33.781Z,9.23
2023-04-08T23:57:02.915Z,9.26
2023-04-08T23:59:32.594Z,9.32
